Time;durP1;ratioP1;P1;durP2;ratioP2;P2;SDS_P1;SDS_P2;PMS_P1;PMS_P2;Temp;Humidity;BMP_temperature;BMP_pressure;BME280_temperature;BME280_humidity;BME280_pressure;Samples;Min_cycle;Max_cycle;Signal;HPM_P1;HPM_P2
2022/03/25 00:00:49;;;;;;;137.63;91.80;;;5.60;99.90;;;;;;5048869;28;20383;-54
2022/03/25 00:03:15;;;;;;;129.35;90.88;;;5.60;99.90;;;;;;5038256;28;20052;-54
2022/03/25 00:05:41;;;;;;;135.57;93.13;;;5.50;99.90;;;;;;5042020;28;20080;-58
2022/03/25 00:08:08;;;;;;;133.55;91.57;;;5.50;99.90;;;;;;5039166;28;20124;-57
2022/03/25 00:10:34;;;;;;;126.60;88.47;;;5.50;99.90;;;;;;5040247;28;20453;-57
2022/03/25 00:13:00;;;;;;;128.98;90.22;;;5.50;99.90;;;;;;5040653;28;20056;-53
2022/03/25 00:15:26;;;;;;;134.52;91.82;;;5.50;99.90;;;;;;5039685;28;20407;-54
2022/03/25 00:17:52;;;;;;;134.85;93.70;;;5.40;99.90;;;;;;5042255;28;20583;-54
2022/03/25 00:20:18;;;;;;;126.82;90.95;;;5.40;99.90;;;;;;5040941;28;20056;-55
2022/03/25 00:22:44;;;;;;;127.90;92.18;;;5.40;99.90;;;;;;5057637;28;20040;-54
2022/03/25 00:25:11;;;;;;;133.68;92.30;;;5.40;99.90;;;;;;5037983;28;20044;-54
2022/03/25 00:27:37;;;;;;;128.65;90.47;;;5.40;99.90;;;;;;5042359;28;20053;-57
2022/03/25 00:30:04;;;;;;;133.90;92.43;;;5.40;99.90;;;;;;5040920;28;20460;-57
2022/03/25 00:32:30;;;;;;;136.77;93.55;;;5.30;99.90;;;;;;5058452;28;20052;-58
2022/03/25 00:34:56;;;;;;;134.05;92.57;;;5.30;99.90;;;;;;5054434;28;20509;-55
2022/03/25 00:37:24;;;;;;;142.45;93.18;;;5.20;99.90;;;;;;5038179;28;20049;-54
2022/03/25 00:39:50;;;;;;;130.95;89.60;;;5.20;99.90;;;;;;5042760;28;20052;-55
2022/03/25 00:42:16;;;;;;;142.05;95.78;;;5.20;99.90;;;;;;5047237;28;20056;-54
2022/03/25 00:44:44;;;;;;;134.75;94.47;;;5.20;99.90;;;;;;5022872;28;20098;-54
2022/03/25 00:47:10;;;;;;;136.40;92.75;;;5.10;99.90;;;;;;5042190;28;20061;-53
2022/03/25 00:49:39;;;;;;;146.63;94.18;;;5.10;99.90;;;;;;5037265;28;20485;-54
2022/03/25 00:52:05;;;;;;;133.55;89.35;;;5.10;99.90;;;;;;5041342;28;20044;-54
2022/03/25 00:54:31;;;;;;;128.63;89.65;;;5.10;99.90;;;;;;5038020;28;20053;-54
2022/03/25 00:56:58;;;;;;;132.43;91.43;;;5.10;99.90;;;;;;5028676;28;20049;-54
2022/03/25 00:59:24;;;;;;;134.30;93.53;;;5.00;99.90;;;;;;5035248;28;20507;-55
2022/03/25 01:01:50;;;;;;;128.30;89.15;;;5.00;99.90;;;;;;5050681;28;20081;-54
2022/03/25 01:04:16;;;;;;;134.85;93.13;;;5.00;99.90;;;;;;5033204;28;20119;-54
2022/03/25 01:06:43;;;;;;;133.80;90.97;;;5.00;99.90;;;;;;5036696;28;20463;-52
2022/03/25 01:09:09;;;;;;;134.25;91.70;;;4.90;99.90;;;;;;5031411;28;20055;-53
2022/03/25 01:11:35;;;;;;;139.75;91.53;;;5.00;99.90;;;;;;5026303;28;20502;-53
2022/03/25 01:14:03;;;;;;;132.65;89.70;;;4.90;99.90;;;;;;5023010;28;20099;-54
2022/03/25 01:16:30;;;;;;;131.93;89.50;;;4.90;99.90;;;;;;5025828;28;20469;-55
2022/03/25 01:18:56;;;;;;;134.90;90.18;;;4.90;99.90;;;;;;5024766;28;20056;-53
2022/03/25 01:21:22;;;;;;;126.72;86.55;;;4.80;99.90;;;;;;5041062;28;20075;-53
2022/03/25 01:23:48;;;;;;;129.00;87.55;;;4.80;99.90;;;;;;5038503;28;20136;-54
2022/03/25 01:26:15;;;;;;;120.90;84.07;;;4.80;99.90;;;;;;5056235;28;20071;-54
2022/03/25 01:28:41;;;;;;;124.82;84.50;;;4.70;99.90;;;;;;5038329;28;20175;-54
2022/03/25 01:31:13;;;;;;;127.82;84.40;;;4.70;99.90;;;;;;5036463;28;20048;-54
2022/03/25 01:33:40;;;;;;;123.75;85.70;;;4.70;99.90;;;;;;5035706;28;20437;-55
2022/03/25 01:36:12;;;;;;;124.90;85.55;;;4.70;99.90;;;;;;5041406;28;20052;-56
2022/03/25 01:38:39;;;;;;;122.90;82.78;;;4.70;99.90;;;;;;5057325;28;20437;-58
2022/03/25 01:41:07;;;;;;;113.82;80.78;;;4.60;99.90;;;;;;5035621;28;20126;-57
2022/03/25 01:43:33;;;;;;;125.85;85.38;;;4.50;99.90;;;;;;5052073;28;20052;-57
2022/03/25 01:46:00;;;;;;;117.13;82.13;;;4.50;99.90;;;;;;5041122;28;20061;-57
2022/03/25 01:48:26;;;;;;;127.53;86.22;;;4.50;99.90;;;;;;5041775;28;20095;-56
2022/03/25 01:50:54;;;;;;;126.93;85.63;;;4.50;99.90;;;;;;5040238;28;20073;-57
2022/03/25 01:53:23;;;;;;;131.98;89.07;;;4.50;99.90;;;;;;5039439;28;20516;-57
2022/03/25 01:55:58;;;;;;;128.23;87.90;;;4.50;99.90;;;;;;5055585;28;20091;-57
2022/03/25 01:58:28;;;;;;;123.38;83.68;;;4.40;99.90;;;;;;5055582;28;20119;-57
2022/03/25 02:00:57;;;;;;;129.65;85.75;;;4.40;99.90;;;;;;5039791;28;20253;-57
2022/03/25 02:03:23;;;;;;;125.22;84.28;;;4.40;99.90;;;;;;5020126;28;20152;-57
2022/03/25 02:05:50;;;;;;;132.63;88.28;;;4.40;99.90;;;;;;5019418;28;20443;-56
2022/03/25 02:08:17;;;;;;;133.13;86.63;;;4.40;99.90;;;;;;5042434;28;20080;-54
2022/03/25 02:10:44;;;;;;;142.25;89.00;;;4.40;99.90;;;;;;5039916;28;20504;-54
2022/03/25 02:13:11;;;;;;;135.73;88.65;;;4.30;99.90;;;;;;5038430;28;20049;-54
2022/03/25 02:15:47;;;;;;;149.70;91.93;;;4.30;99.90;;;;;;5041252;28;20112;-55
2022/03/25 02:18:15;;;;;;;154.27;93.82;;;4.30;99.90;;;;;;5043512;28;20059;-54
2022/03/25 02:20:42;;;;;;;150.88;90.95;;;4.30;99.90;;;;;;5040019;28;20598;-54
2022/03/25 02:23:12;;;;;;;142.23;91.00;;;4.30;99.90;;;;;;5029375;28;20041;-53
2022/03/25 02:25:40;;;;;;;132.48;87.25;;;4.30;99.90;;;;;;5032221;28;20049;-54
2022/03/25 02:28:08;;;;;;;151.38;94.05;;;4.20;99.90;;;;;;5052998;28;20228;-54
2022/03/25 02:30:37;;;;;;;163.32;95.00;;;4.20;99.90;;;;;;5044451;28;20132;-54
2022/03/25 02:33:07;;;;;;;153.30;91.97;;;4.20;99.90;;;;;;5025134;28;20550;-53
2022/03/25 02:35:39;;;;;;;161.10;95.93;;;4.20;99.90;;;;;;5039837;28;20126;-54
2022/03/25 02:38:07;;;;;;;156.98;94.28;;;4.10;99.90;;;;;;5026640;28;20049;-53
2022/03/25 02:40:36;;;;;;;234.30;99.97;;;4.20;99.90;;;;;;5063080;28;20048;-54
2022/03/25 02:43:02;;;;;;;190.38;98.28;;;4.10;99.90;;;;;;5039474;28;20132;-55
2022/03/25 02:45:28;;;;;;;196.15;94.18;;;4.20;99.90;;;;;;5059387;28;20433;-54
2022/03/25 02:47:55;;;;;;;303.80;103.38;;;4.20;99.90;;;;;;5032889;28;21033;-57
2022/03/25 02:50:21;;;;;;;327.25;99.70;;;4.20;99.90;;;;;;5042087;28;20049;-56
2022/03/25 02:52:47;;;;;;;513.42;113.03;;;4.20;99.90;;;;;;5044518;28;20055;-57
2022/03/25 02:55:13;;;;;;;427.48;98.95;;;4.10;99.90;;;;;;5019114;28;20049;-54
2022/03/25 02:57:40;;;;;;;273.85;92.78;;;4.10;99.90;;;;;;5040805;28;20507;-56
2022/03/25 03:00:09;;;;;;;404.83;102.55;;;4.10;99.90;;;;;;5044901;28;20553;-55
2022/03/25 03:02:36;;;;;;;387.25;102.03;;;4.00;99.90;;;;;;5041384;28;20129;-54
2022/03/25 03:05:05;;;;;;;405.52;95.38;;;4.00;99.90;;;;;;5043424;28;20567;-57
2022/03/25 03:07:31;;;;;;;362.52;88.53;;;4.00;99.90;;;;;;5036149;28;20081;-57
2022/03/25 03:09:57;;;;;;;223.68;87.03;;;3.90;99.90;;;;;;5042792;28;20045;-57
2022/03/25 03:12:24;;;;;;;270.80;90.38;;;3.90;99.90;;;;;;5043901;28;20056;-57
2022/03/25 03:14:50;;;;;;;470.73;99.05;;;3.90;99.90;;;;;;5044781;28;20496;-57
2022/03/25 03:17:16;;;;;;;353.45;93.57;;;3.90;99.90;;;;;;5045749;28;20281;-57
2022/03/25 03:19:42;;;;;;;536.15;103.78;;;3.80;99.90;;;;;;5041861;28;20099;-55
2022/03/25 03:22:08;;;;;;;501.20;100.25;;;3.80;99.90;;;;;;5043827;28;20144;-54
2022/03/25 03:24:34;;;;;;;781.63;130.50;;;3.80;99.90;;;;;;5031560;28;20053;-54
2022/03/25 03:27:00;;;;;;;544.55;102.63;;;3.70;99.90;;;;;;5040004;28;20556;-55
2022/03/25 03:29:26;;;;;;;470.38;97.32;;;3.70;99.90;;;;;;5035993;28;20560;-52
2022/03/25 03:31:53;;;;;;;469.98;95.75;;;3.70;99.90;;;;;;5035509;28;20045;-53
2022/03/25 03:34:19;;;;;;;484.23;97.00;;;3.70;99.90;;;;;;5033997;28;20874;-54
2022/03/25 03:36:45;;;;;;;450.95;92.45;;;3.70;99.90;;;;;;5042344;28;20049;-53
2022/03/25 03:39:11;;;;;;;541.90;99.35;;;3.60;99.90;;;;;;5043463;28;20041;-55
2022/03/25 03:41:38;;;;;;;427.90;87.05;;;3.60;99.90;;;;;;5048340;28;20045;-55
2022/03/25 03:44:05;;;;;;;608.15;112.03;;;3.60;99.90;;;;;;5044195;28;20056;-53
2022/03/25 03:46:33;;;;;;;629.30;107.57;;;3.60;99.90;;;;;;5046314;28;20130;-54
2022/03/25 03:49:02;;;;;;;646.83;112.68;;;3.60;99.90;;;;;;5041975;28;20424;-52
2022/03/25 03:51:28;;;;;;;382.55;83.57;;;3.60;99.90;;;;;;5056840;28;20083;-51
2022/03/25 03:53:55;;;;;;;482.13;100.80;;;3.50;99.90;;;;;;5038516;28;20559;-53
2022/03/25 03:56:22;;;;;;;357.65;83.95;;;3.50;99.90;;;;;;5045226;28;20060;-54
2022/03/25 03:58:48;;;;;;;536.95;110.55;;;3.50;99.90;;;;;;5036750;28;20041;-54
2022/03/25 04:01:14;;;;;;;308.02;84.05;;;3.40;99.90;;;;;;5036592;28;20041;-52
2022/03/25 04:03:40;;;;;;;454.25;95.18;;;3.40;99.90;;;;;;5045318;28;20053;-54
2022/03/25 04:06:06;;;;;;;408.08;85.38;;;3.20;99.90;;;;;;5040661;28;20063;-54
2022/03/25 04:08:34;;;;;;;449.23;86.53;;;3.30;99.90;;;;;;5042885;28;20072;-54
2022/03/25 04:11:00;;;;;;;525.10;95.45;;;3.20;99.90;;;;;;5020911;28;20057;-55
2022/03/25 04:13:26;;;;;;;346.20;82.50;;;3.20;99.90;;;;;;5022402;28;20260;-54
2022/03/25 04:15:52;;;;;;;213.13;70.53;;;3.20;99.90;;;;;;5028852;28;20370;-53
2022/03/25 04:18:18;;;;;;;388.95;81.50;;;3.20;99.90;;;;;;5037838;28;20033;-55
2022/03/25 04:20:45;;;;;;;213.70;68.07;;;3.20;99.90;;;;;;5032323;28;20049;-54
2022/03/25 04:23:11;;;;;;;310.00;71.57;;;3.20;99.90;;;;;;5033184;28;20060;-54
2022/03/25 04:25:37;;;;;;;290.02;72.10;;;3.10;99.90;;;;;;5040154;28;20143;-54
2022/03/25 04:28:03;;;;;;;306.73;73.20;;;3.10;99.90;;;;;;5044994;28;20409;-54
2022/03/25 04:30:32;;;;;;;257.80;68.47;;;3.10;99.90;;;;;;5012502;28;20045;-54
2022/03/25 04:32:59;;;;;;;435.40;87.97;;;3.00;99.90;;;;;;5036262;28;20049;-55
2022/03/25 04:35:26;;;;;;;229.45;69.15;;;2.90;99.90;;;;;;5033522;28;20072;-54
2022/03/25 04:37:52;;;;;;;287.60;72.72;;;2.90;99.90;;;;;;5041459;28;20044;-53
2022/03/25 04:40:21;;;;;;;359.50;83.28;;;2.90;99.90;;;;;;5038293;28;20041;-57
2022/03/25 04:42:48;;;;;;;136.45;64.97;;;3.00;99.90;;;;;;5035004;28;20042;-57
2022/03/25 04:45:14;;;;;;;194.50;71.80;;;2.90;99.90;;;;;;5039204;28;20051;-57
2022/03/25 04:47:41;;;;;;;333.42;80.15;;;2.80;99.90;;;;;;5040273;28;20092;-57
2022/03/25 04:50:07;;;;;;;145.25;63.50;;;2.80;99.90;;;;;;5035892;28;20048;-57
2022/03/25 04:52:34;;;;;;;202.10;67.80;;;2.80;99.90;;;;;;5011693;28;20539;-57
2022/03/25 04:55:00;;;;;;;197.05;67.10;;;2.70;99.90;;;;;;5028436;28;20048;-57
2022/03/25 04:57:26;;;;;;;186.98;67.82;;;2.70;99.90;;;;;;5039448;28;20459;-57
2022/03/25 04:59:53;;;;;;;161.10;65.85;;;2.60;99.90;;;;;;5038549;28;20067;-58
2022/03/25 05:02:19;;;;;;;228.45;66.35;;;2.70;99.90;;;;;;5039769;28;20407;-58
2022/03/25 05:04:45;;;;;;;165.43;64.32;;;2.60;99.90;;;;;;5036344;28;20057;-57
2022/03/25 05:07:15;;;;;;;277.73;71.13;;;2.60;99.90;;;;;;5054459;28;20048;-57
2022/03/25 05:09:42;;;;;;;236.60;72.30;;;2.50;99.90;;;;;;5047415;28;20527;-58
2022/03/25 05:12:09;;;;;;;145.70;64.10;;;2.60;99.90;;;;;;5040102;28;20440;-57
2022/03/25 05:14:35;;;;;;;118.68;62.53;;;2.50;99.90;;;;;;5028936;28;20136;-57
2022/03/25 05:17:02;;;;;;;135.95;61.33;;;2.40;99.90;;;;;;5038133;28;20458;-58
2022/03/25 05:19:28;;;;;;;160.63;63.42;;;2.50;99.90;;;;;;5039304;28;20555;-57
2022/03/25 05:21:54;;;;;;;197.55;62.38;;;2.40;99.90;;;;;;5025808;28;20153;-58
2022/03/25 05:24:20;;;;;;;247.55;65.82;;;2.40;99.90;;;;;;5040458;28;20045;-58
2022/03/25 05:26:46;;;;;;;158.02;59.95;;;2.40;99.90;;;;;;5042222;28;20056;-57
2022/03/25 05:29:12;;;;;;;183.68;63.53;;;2.30;99.90;;;;;;5034078;28;20051;-57
2022/03/25 05:31:39;;;;;;;321.15;73.43;;;2.40;99.90;;;;;;5029861;28;20423;-58
2022/03/25 05:34:05;;;;;;;144.60;57.58;;;2.30;99.90;;;;;;5043039;28;20049;-57
2022/03/25 05:36:31;;;;;;;175.00;58.70;;;2.30;99.90;;;;;;5042900;28;20057;-58
2022/03/25 05:38:58;;;;;;;179.95;63.13;;;2.30;99.90;;;;;;5039290;28;20089;-58
2022/03/25 05:41:25;;;;;;;88.95;59.13;;;2.30;99.90;;;;;;5052571;28;20052;-58
2022/03/25 05:43:51;;;;;;;87.63;58.83;;;2.30;99.90;;;;;;5046983;28;20061;-57
2022/03/25 05:46:18;;;;;;;87.13;58.17;;;2.40;99.90;;;;;;5033512;28;20110;-58
2022/03/25 05:48:44;;;;;;;71.18;54.72;;;2.30;99.90;;;;;;5036769;28;20061;-57
2022/03/25 05:51:10;;;;;;;71.95;53.92;;;2.40;99.90;;;;;;5040863;28;20120;-57
2022/03/25 05:53:37;;;;;;;77.88;56.80;;;2.40;99.90;;;;;;5034671;28;20049;-57
2022/03/25 05:56:05;;;;;;;75.20;54.88;;;2.40;99.90;;;;;;5035396;28;20044;-57
2022/03/25 05:58:38;;;;;;;73.40;54.65;;;2.40;99.90;;;;;;5040194;28;20060;-58
2022/03/25 06:01:06;;;;;;;67.25;50.97;;;2.50;99.90;;;;;;5057876;28;20049;-57
2022/03/25 06:03:32;;;;;;;63.40;51.13;;;2.50;99.90;;;;;;5042286;28;20512;-58
2022/03/25 06:06:00;;;;;;;64.63;51.88;;;2.40;99.90;;;;;;5044259;28;20049;-58
2022/03/25 06:08:26;;;;;;;57.33;48.33;;;2.30;99.90;;;;;;5035036;28;20123;-57
2022/03/25 06:10:52;;;;;;;62.53;50.47;;;2.30;99.90;;;;;;5038669;28;20642;-57
2022/03/25 06:13:19;;;;;;;61.47;50.63;;;2.40;99.90;;;;;;5038993;28;20492;-57
2022/03/25 06:15:45;;;;;;;63.08;49.63;;;2.40;99.90;;;;;;5037143;28;20175;-58
2022/03/25 06:18:11;;;;;;;60.30;48.35;;;2.40;99.90;;;;;;5029396;28;20049;-57
2022/03/25 06:20:37;;;;;;;64.85;50.10;;;2.50;99.90;;;;;;5036079;28;20539;-57
2022/03/25 06:23:03;;;;;;;62.53;50.63;;;2.60;99.90;;;;;;5039771;28;20049;-57
2022/03/25 06:25:29;;;;;;;57.38;47.03;;;2.70;99.90;;;;;;5036110;28;20095;-57
2022/03/25 06:28:00;;;;;;;59.35;49.05;;;2.80;99.90;;;;;;5039379;28;20124;-57
2022/03/25 06:30:34;;;;;;;60.60;49.47;;;2.80;99.90;;;;;;5017947;28;20380;-57
2022/03/25 06:33:05;;;;;;;58.83;48.40;;;2.90;99.90;;;;;;5032452;28;20335;-57
2022/03/25 06:35:32;;;;;;;53.10;47.03;;;3.00;99.90;;;;;;5039603;28;20045;-58
2022/03/25 06:37:58;;;;;;;59.03;49.30;;;3.10;99.90;;;;;;5038422;28;20055;-57
2022/03/25 06:40:25;;;;;;;55.42;47.97;;;3.20;99.90;;;;;;5039932;28;20060;-57
2022/03/25 06:42:54;;;;;;;55.75;46.67;;;3.20;99.90;;;;;;5038480;28;20095;-57
2022/03/25 06:45:22;;;;;;;56.38;47.72;;;3.30;99.90;;;;;;5038482;28;20669;-57
2022/03/25 06:47:48;;;;;;;54.45;45.92;;;3.50;99.90;;;;;;5032300;28;20065;-58
2022/03/25 06:50:16;;;;;;;70.50;52.45;;;3.60;99.90;;;;;;5047238;28;20068;-57
2022/03/25 06:52:42;;;;;;;87.50;63.97;;;3.80;99.90;;;;;;5037768;28;20189;-63
2022/03/25 06:55:10;;;;;;;81.50;58.22;;;4.10;99.90;;;;;;5039104;28;20076;-55
2022/03/25 06:57:36;;;;;;;82.90;56.42;;;4.40;99.90;;;;;;5021286;28;20159;-56
2022/03/25 07:00:04;;;;;;;69.85;55.08;;;4.60;99.90;;;;;;5042260;28;20037;-53
2022/03/25 07:02:30;;;;;;;69.45;51.92;;;4.80;99.90;;;;;;5057793;28;20047;-55
2022/03/25 07:04:56;;;;;;;63.67;50.97;;;5.10;99.90;;;;;;5042210;28;20045;-53
2022/03/25 07:07:26;;;;;;;62.38;48.63;;;5.40;99.90;;;;;;5043738;28;20056;-55
2022/03/25 07:09:56;;;;;;;64.68;51.42;;;5.70;99.90;;;;;;5041196;28;20091;-55
2022/03/25 07:12:23;;;;;;;59.88;50.65;;;6.00;99.90;;;;;;5057967;28;20041;-55
2022/03/25 07:14:49;;;;;;;55.95;48.95;;;6.30;99.90;;;;;;5041271;28;20037;-55
2022/03/25 07:17:15;;;;;;;58.65;49.00;;;6.60;99.90;;;;;;5057612;28;20104;-56
2022/03/25 07:19:41;;;;;;;55.63;47.80;;;6.90;99.90;;;;;;5039604;28;20063;-55
2022/03/25 07:22:07;;;;;;;56.67;47.38;;;7.20;99.90;;;;;;5042499;28;20049;-56
2022/03/25 07:24:34;;;;;;;51.35;45.70;;;7.40;99.90;;;;;;5042726;28;20057;-56
2022/03/25 07:27:00;;;;;;;53.63;46.17;;;7.80;99.90;;;;;;5041461;28;20122;-55
2022/03/25 07:29:26;;;;;;;50.92;44.90;;;8.10;99.90;;;;;;5039207;28;20052;-56
2022/03/25 07:31:53;;;;;;;54.03;45.40;;;8.20;99.90;;;;;;5054891;28;20210;-55
2022/03/25 07:34:19;;;;;;;56.28;47.60;;;8.70;99.90;;;;;;5039387;28;20529;-57
2022/03/25 07:36:45;;;;;;;56.78;50.60;;;9.20;99.90;;;;;;5041007;28;20061;-56
2022/03/25 07:39:11;;;;;;;51.95;46.53;;;9.40;99.90;;;;;;5044562;28;20469;-56
2022/03/25 07:41:37;;;;;;;53.15;46.35;;;9.80;99.90;;;;;;5037487;28;20052;-55
2022/03/25 07:44:04;;;;;;;51.42;45.83;;;10.20;99.90;;;;;;5023032;28;20165;-56
2022/03/25 07:46:31;;;;;;;53.17;45.80;;;10.40;99.90;;;;;;5007461;28;20071;-56
2022/03/25 07:48:57;;;;;;;51.70;46.17;;;10.40;99.90;;;;;;5039277;28;20064;-56
2022/03/25 07:51:23;;;;;;;51.15;44.53;;;10.60;99.90;;;;;;5038590;28;20040;-55
2022/03/25 07:53:49;;;;;;;50.10;44.65;;;11.00;99.90;;;;;;5040999;28;20594;-55
2022/03/25 07:56:15;;;;;;;50.60;45.22;;;11.40;99.90;;;;;;5035523;28;20049;-55
2022/03/25 07:58:41;;;;;;;48.85;43.55;;;11.70;99.90;;;;;;5056929;28;20483;-55
2022/03/25 08:01:07;;;;;;;50.05;44.65;;;11.90;99.90;;;;;;5040185;28;20049;-56
2022/03/25 08:03:34;;;;;;;50.10;44.72;;;11.70;99.90;;;;;;5039129;28;20080;-55
2022/03/25 08:06:00;;;;;;;49.42;44.30;;;11.90;99.90;;;;;;5042000;28;20056;-55
2022/03/25 08:08:26;;;;;;;48.08;43.00;;;11.90;99.90;;;;;;5036668;28;20045;-55
2022/03/25 08:10:56;;;;;;;48.75;43.42;;;12.30;99.90;;;;;;5038988;28;20500;-55
2022/03/25 08:13:23;;;;;;;46.58;41.65;;;12.50;99.90;;;;;;5040577;28;20159;-56
2022/03/25 08:15:49;;;;;;;46.45;41.70;;;13.00;99.90;;;;;;5037122;28;20631;-56
2022/03/25 08:18:18;;;;;;;43.45;38.80;;;13.20;99.90;;;;;;5035047;28;20068;-56
2022/03/25 08:20:47;;;;;;;45.17;39.28;;;13.20;99.90;;;;;;5046716;28;20065;-55
2022/03/25 08:27:48;;;;;;;43.60;38.90;;;13.60;99.90;;;;;;5038178;28;20045;-56
2022/03/25 08:28:50;;;;;;;41.55;37.03;;;14.50;99.90;;;;;;5033715;28;20156;-56
2022/03/25 08:31:17;;;;;;;41.05;36.65;;;14.70;99.90;;;;;;5047076;28;20297;-55
2022/03/25 08:33:43;;;;;;;42.00;37.33;;;14.90;99.90;;;;;;5037496;28;20044;-56
2022/03/25 08:36:10;;;;;;;38.53;34.67;;;15.10;99.90;;;;;;5032996;28;20779;-56
2022/03/25 08:38:36;;;;;;;41.20;36.88;;;15.60;99.90;;;;;;5049166;28;20056;-56
2022/03/25 08:41:03;;;;;;;39.92;35.67;;;15.60;99.90;;;;;;5032730;28;20048;-56
2022/03/25 08:43:29;;;;;;;40.47;36.20;;;15.90;99.90;;;;;;5035243;28;20041;-56
2022/03/25 08:45:55;;;;;;;40.72;36.63;;;15.90;99.90;;;;;;5034693;28;20151;-56
2022/03/25 08:48:21;;;;;;;40.28;36.13;;;15.80;94.10;;;;;;5047039;28;20045;-56
2022/03/25 08:50:47;;;;;;;39.50;35.58;;;16.20;93.30;;;;;;5032020;28;20044;-56
2022/03/25 08:53:13;;;;;;;41.05;36.83;;;16.50;84.20;;;;;;5032624;28;20130;-56
2022/03/25 08:55:40;;;;;;;41.70;37.28;;;16.90;75.60;;;;;;5034764;28;20040;-56
2022/03/25 08:58:06;;;;;;;41.33;36.78;;;16.90;68.30;;;;;;5017804;28;20480;-56
2022/03/25 09:00:32;;;;;;;39.63;35.40;;;16.90;67.90;;;;;;5018024;28;20413;-56
2022/03/25 09:02:58;;;;;;;40.97;36.45;;;17.20;66.40;;;;;;5032768;28;20076;-56
2022/03/25 09:05:24;;;;;;;39.58;35.58;;;17.20;64.00;;;;;;5033788;28;20399;-56
2022/03/25 09:07:50;;;;;;;42.22;36.15;;;17.60;62.10;;;;;;5031978;28;20055;-56
2022/03/25 09:10:16;;;;;;;42.13;37.35;;;17.60;61.50;;;;;;5048001;28;20121;-56
2022/03/25 09:12:44;;;;;;;42.72;38.20;;;17.70;60.80;;;;;;5036316;28;20152;-56
2022/03/25 09:15:13;;;;;;;38.55;34.60;;;17.60;58.90;;;;;;5017341;28;20053;-56
2022/03/25 09:17:40;;;;;;;39.28;35.10;;;17.70;59.20;;;;;;5033458;28;20048;-58
2022/03/25 09:20:07;;;;;;;40.20;35.47;;;18.00;57.70;;;;;;5015972;28;20115;-55
2022/03/25 09:22:36;;;;;;;37.80;33.88;;;18.00;57.80;;;;;;5049044;28;20463;-56
2022/03/25 09:25:04;;;;;;;36.58;32.88;;;18.50;56.20;;;;;;5033402;28;20052;-56
2022/03/25 09:27:31;;;;;;;38.63;34.33;;;18.70;54.80;;;;;;5032510;28;20052;-56
2022/03/25 09:29:57;;;;;;;35.65;31.73;;;19.10;54.30;;;;;;5015084;28;20045;-56
2022/03/25 09:32:23;;;;;;;34.47;30.95;;;19.30;52.50;;;;;;5016081;28;20457;-56
2022/03/25 09:37:38;;;;;;;34.83;31.15;;;19.70;48.10;;;;;;5034106;28;20057;-56
2022/03/25 09:40:12;;;;;;;34.67;31.10;;;19.90;46.70;;;;;;5033983;28;20053;-56
2022/03/25 09:42:39;;;;;;;33.53;30.00;;;20.00;45.10;;;;;;5035027;28;20570;-56
2022/03/25 09:45:07;;;;;;;33.53;29.90;;;19.80;46.00;;;;;;5034263;28;20079;-56
2022/03/25 09:47:34;;;;;;;35.17;31.60;;;19.70;46.10;;;;;;5014990;28;20049;-55
2022/03/25 09:50:02;;;;;;;32.90;29.42;;;19.90;46.10;;;;;;5048446;28;20051;-56
2022/03/25 09:52:29;;;;;;;34.60;30.90;;;19.40;45.10;;;;;;5026391;28;20461;-56
2022/03/25 09:54:56;;;;;;;34.17;30.55;;;19.80;46.80;;;;;;5033528;28;20467;-57
2022/03/25 09:57:22;;;;;;;35.92;31.55;;;20.30;45.40;;;;;;5034353;28;20128;-56
2022/03/25 09:59:48;;;;;;;34.08;30.48;;;20.40;45.20;;;;;;5033103;28;20056;-57
2022/03/25 10:02:14;;;;;;;39.40;34.88;;;20.60;45.50;;;;;;5036358;28;20044;-58
2022/03/25 10:04:45;;;;;;;37.90;30.67;;;21.00;43.50;;;;;;5033689;28;20049;-59
2022/03/25 10:07:18;;;;;;;45.33;38.92;;;21.10;41.80;;;;;;5038555;28;20422;-59
2022/03/25 10:09:45;;;;;;;31.77;28.48;;;21.60;42.10;;;;;;5034090;28;20527;-59
2022/03/25 10:12:23;;;;;;;48.38;43.58;;;22.10;41.50;;;;;;5041782;28;20074;-57
2022/03/25 10:14:51;;;;;;;33.63;27.77;;;22.50;39.40;;;;;;5049578;28;20076;-59
2022/03/25 10:17:19;;;;;;;29.08;26.08;;;22.30;40.80;;;;;;5052691;28;20052;-59
2022/03/25 10:19:49;;;;;;;29.25;25.27;;;22.40;40.40;;;;;;5031101;28;20049;-58
2022/03/25 10:22:17;;;;;;;30.27;26.95;;;22.60;38.10;;;;;;5031525;28;20059;-59
2022/03/25 10:24:49;;;;;;;34.63;31.10;;;22.30;39.60;;;;;;5031162;28;20579;-59
2022/03/25 10:27:23;;;;;;;51.13;40.08;;;22.30;38.60;;;;;;5047627;28;20492;-59
2022/03/25 10:29:54;;;;;;;69.97;62.95;;;23.00;40.50;;;;;;5037163;28;20053;-59
2022/03/25 10:32:25;;;;;;;29.55;25.48;;;23.10;41.50;;;;;;5040046;28;20045;-59
2022/03/25 10:35:02;;;;;;;65.57;58.63;;;22.70;39.70;;;;;;5038082;28;20404;-59
2022/03/25 10:37:28;;;;;;;28.17;25.20;;;23.50;39.10;;;;;;5034589;28;20603;-61
2022/03/25 10:39:54;;;;;;;28.80;25.70;;;23.50;38.80;;;;;;5036108;28;20048;-60
2022/03/25 10:42:21;;;;;;;29.42;26.25;;;22.90;37.20;;;;;;5035456;28;20136;-60
2022/03/25 10:44:47;;;;;;;27.95;25.10;;;23.50;37.90;;;;;;5035084;28;20045;-61
2022/03/25 10:47:16;;;;;;;29.35;26.38;;;23.80;37.70;;;;;;5043219;28;20674;-59
2022/03/25 10:49:46;;;;;;;28.02;24.95;;;23.60;37.10;;;;;;5042274;28;20052;-60
2022/03/25 10:52:30;;;;;;;28.55;25.08;;;23.90;35.90;;;;;;5040093;28;20671;-61
2022/03/25 10:55:22;;;;;;;27.85;24.75;;;24.00;35.90;;;;;;5042448;28;20045;-61
2022/03/25 10:57:56;;;;;;;30.17;25.30;;;23.80;35.00;;;;;;5044490;28;20079;-61
2022/03/25 11:00:24;;;;;;;32.63;27.50;;;24.60;36.10;;;;;;5043562;28;20049;-61
2022/03/25 11:02:51;;;;;;;30.55;26.35;;;24.60;36.60;;;;;;5039022;28;20048;-60
2022/03/25 11:05:17;;;;;;;30.17;25.08;;;24.80;36.00;;;;;;5040282;28;20049;-60
2022/03/25 11:07:45;;;;;;;32.83;26.27;;;24.80;35.70;;;;;;5025355;28;20044;-60
2022/03/25 11:10:13;;;;;;;29.90;26.23;;;24.80;35.30;;;;;;5058199;28;20041;-61
2022/03/25 11:12:42;;;;;;;29.65;26.42;;;25.00;34.60;;;;;;5041608;28;20488;-60
2022/03/25 11:15:14;;;;;;;28.30;24.90;;;25.20;35.20;;;;;;5007475;28;20056;-60
2022/03/25 11:17:44;;;;;;;27.40;24.50;;;24.60;34.10;;;;;;5040185;28;20045;-61
2022/03/25 11:20:15;;;;;;;30.45;24.80;;;25.10;34.10;;;;;;5044639;28;20044;-60
2022/03/25 11:22:49;;;;;;;30.17;24.60;;;25.40;33.60;;;;;;5037064;28;20442;-60
2022/03/25 11:25:21;;;;;;;30.48;26.02;;;25.30;33.40;;;;;;5040094;28;20127;-60
2022/03/25 11:28:16;;;;;;;28.52;25.42;;;25.60;33.40;;;;;;5055419;28;20037;-60
2022/03/25 11:30:42;;;;;;;28.55;25.27;;;25.50;33.70;;;;;;5039678;28;20057;-60
2022/03/25 11:33:10;;;;;;;28.42;25.38;;;25.60;33.60;;;;;;5038318;28;20052;-60
2022/03/25 11:35:42;;;;;;;27.38;24.27;;;26.00;33.60;;;;;;5037394;28;20045;-59
2022/03/25 11:38:12;;;;;;;29.00;25.80;;;26.20;32.80;;;;;;5039973;28;20273;-62
2022/03/25 11:40:44;;;;;;;28.67;25.73;;;26.50;32.70;;;;;;5039189;28;20048;-59
2022/03/25 11:43:17;;;;;;;36.42;30.58;;;26.30;32.90;;;;;;5035574;28;20385;-58
2022/03/25 11:45:44;;;;;;;25.85;23.13;;;26.10;32.20;;;;;;5041395;28;20528;-59
2022/03/25 11:48:11;;;;;;;26.85;23.80;;;25.40;32.60;;;;;;5051497;28;20057;-60
2022/03/25 11:50:44;;;;;;;38.70;34.63;;;26.10;33.10;;;;;;5041587;28;20145;-58
2022/03/25 11:53:10;;;;;;;29.55;24.83;;;26.40;32.60;;;;;;5042885;28;20213;-59
2022/03/25 11:55:52;;;;;;;29.17;24.38;;;26.20;32.80;;;;;;5040869;28;20323;-59
2022/03/25 11:58:19;;;;;;;26.85;23.15;;;26.40;32.40;;;;;;5054975;28;20048;-59
2022/03/25 12:00:48;;;;;;;27.98;22.70;;;26.20;32.50;;;;;;5055409;28;20471;-60
2022/03/25 12:03:16;;;;;;;48.25;43.40;;;26.50;32.20;;;;;;5038175;28;20052;-60
2022/03/25 12:05:58;;;;;;;31.58;27.95;;;26.40;33.00;;;;;;5040580;28;20690;-61
2022/03/25 12:08:28;;;;;;;28.45;24.50;;;26.60;32.90;;;;;;5041662;28;20444;-62
2022/03/25 12:10:56;;;;;;;31.42;28.13;;;26.70;33.10;;;;;;5041014;28;20037;-61
2022/03/25 12:13:43;;;;;;;29.77;26.67;;;26.80;32.60;;;;;;5040676;28;20071;-61
2022/03/25 12:16:09;;;;;;;29.63;26.38;;;27.20;32.10;;;;;;5043234;28;20048;-61
2022/03/25 12:18:44;;;;;;;31.55;26.85;;;27.10;31.90;;;;;;5043398;28;20045;-61
2022/03/25 12:21:20;;;;;;;28.05;23.80;;;26.90;31.60;;;;;;5028786;28;20053;-61
2022/03/25 12:23:57;;;;;;;29.55;23.42;;;26.30;30.10;;;;;;5028531;28;20149;-61
2022/03/25 12:26:37;;;;;;;28.50;23.17;;;26.10;31.20;;;;;;5038331;28;20046;-61
2022/03/25 12:29:06;;;;;;;28.00;23.38;;;26.40;30.60;;;;;;5039422;28;20075;-61
2022/03/25 12:31:32;;;;;;;30.23;24.42;;;26.20;30.90;;;;;;5036596;28;20051;-61
2022/03/25 12:34:00;;;;;;;30.40;24.42;;;26.50;31.20;;;;;;5039204;28;20048;-61
2022/03/25 12:36:52;;;;;;;31.48;25.75;;;26.60;31.10;;;;;;5018485;28;20068;-62